sensor_id;sensor_type;location;lat;lon;timestamp;temperature;humidity
12819;DHT22;6474;53.474;9.894;2023-04-06T00:02:05;2.40;78.00
12819;DHT22;6474;53.474;9.894;2023-04-06T00:04:33;2.30;77.90
12819;DHT22;6474;53.474;9.894;2023-04-06T00:07:00;2.30;78.00
12819;DHT22;6474;53.474;9.894;2023-04-06T00:09:28;2.30;78.10
12819;DHT22;6474;53.474;9.894;2023-04-06T00:11:59;2.30;78.10
12819;DHT22;6474;53.474;9.894;2023-04-06T00:14:27;2.30;78.10
12819;DHT22;6474;53.474;9.894;2023-04-06T00:16:55;2.20;78.00
12819;DHT22;6474;53.474;9.894;2023-04-06T00:19:23;2.20;78.00
12819;DHT22;6474;53.474;9.894;2023-04-06T00:21:51;2.20;78.10
12819;DHT22;6474;53.474;9.894;2023-04-06T00:24:19;2.20;78.10
12819;DHT22;6474;53.474;9.894;2023-04-06T00:26:47;2.20;78.10
12819;DHT22;6474;53.474;9.894;2023-04-06T00:29:16;2.10;77.90
12819;DHT22;6474;53.474;9.894;2023-04-06T00:31:44;2.10;77.90
12819;DHT22;6474;53.474;9.894;2023-04-06T00:34:12;2.10;78.00
12819;DHT22;6474;53.474;9.894;2023-04-06T00:36:44;2.10;78.00
12819;DHT22;6474;53.474;9.894;2023-04-06T00:39:12;2.00;77.90
12819;DHT22;6474;53.474;9.894;2023-04-06T00:41:45;2.00;77.90
12819;DHT22;6474;53.474;9.894;2023-04-06T00:44:13;2.00;78.10
12819;DHT22;6474;53.474;9.894;2023-04-06T00:46:43;2.00;78.00
12819;DHT22;6474;53.474;9.894;2023-04-06T00:49:11;1.90;77.80
12819;DHT22;6474;53.474;9.894;2023-04-06T00:51:39;1.90;77.80
12819;DHT22;6474;53.474;9.894;2023-04-06T00:54:07;1.80;77.80
12819;DHT22;6474;53.474;9.894;2023-04-06T00:56:35;1.80;77.90
12819;DHT22;6474;53.474;9.894;2023-04-06T00:59:03;1.80;77.90
12819;DHT22;6474;53.474;9.894;2023-04-06T01:01:31;1.80;77.90
12819;DHT22;6474;53.474;9.894;2023-04-06T01:04:02;1.80;78.00
12819;DHT22;6474;53.474;9.894;2023-04-06T01:06:30;1.70;78.70
12819;DHT22;6474;53.474;9.894;2023-04-06T01:08:58;1.70;78.00
12819;DHT22;6474;53.474;9.894;2023-04-06T01:11:28;1.70;78.10
12819;DHT22;6474;53.474;9.894;2023-04-06T01:13:56;1.70;78.30
12819;DHT22;6474;53.474;9.894;2023-04-06T01:16:24;1.70;78.10
12819;DHT22;6474;53.474;9.894;2023-04-06T01:18:52;1.70;78.00
12819;DHT22;6474;53.474;9.894;2023-04-06T01:21:21;1.70;78.00
12819;DHT22;6474;53.474;9.894;2023-04-06T01:23:51;1.70;77.90
12819;DHT22;6474;53.474;9.894;2023-04-06T01:26:18;1.70;77.90
12819;DHT22;6474;53.474;9.894;2023-04-06T01:28:46;1.60;77.80
12819;DHT22;6474;53.474;9.894;2023-04-06T01:31:14;1.60;77.90
12819;DHT22;6474;53.474;9.894;2023-04-06T01:33:42;1.50;77.90
12819;DHT22;6474;53.474;9.894;2023-04-06T01:36:10;1.50;77.90
12819;DHT22;6474;53.474;9.894;2023-04-06T01:38:38;1.50;78.00
12819;DHT22;6474;53.474;9.894;2023-04-06T01:41:08;1.50;78.00
12819;DHT22;6474;53.474;9.894;2023-04-06T01:43:36;1.50;78.00
12819;DHT22;6474;53.474;9.894;2023-04-06T01:46:04;1.50;78.00
12819;DHT22;6474;53.474;9.894;2023-04-06T01:48:32;1.50;78.10
12819;DHT22;6474;53.474;9.894;2023-04-06T01:51:00;1.40;77.90
12819;DHT22;6474;53.474;9.894;2023-04-06T01:53:28;1.40;77.90
12819;DHT22;6474;53.474;9.894;2023-04-06T01:55:56;1.40;77.90
12819;DHT22;6474;53.474;9.894;2023-04-06T01:58:25;1.40;77.90
12819;DHT22;6474;53.474;9.894;2023-04-06T02:00:53;1.40;77.90
12819;DHT22;6474;53.474;9.894;2023-04-06T02:03:21;1.40;77.90
12819;DHT22;6474;53.474;9.894;2023-04-06T02:05:49;1.30;77.90
12819;DHT22;6474;53.474;9.894;2023-04-06T02:08:17;1.30;78.00
12819;DHT22;6474;53.474;9.894;2023-04-06T02:10:45;1.30;77.90
12819;DHT22;6474;53.474;9.894;2023-04-06T02:13:13;1.30;77.80
12819;DHT22;6474;53.474;9.894;2023-04-06T02:15:42;1.30;77.80
12819;DHT22;6474;53.474;9.894;2023-04-06T02:18:10;1.20;77.60
12819;DHT22;6474;53.474;9.894;2023-04-06T02:20:38;1.20;77.60
12819;DHT22;6474;53.474;9.894;2023-04-06T02:23:06;1.20;77.70
12819;DHT22;6474;53.474;9.894;2023-04-06T02:25:34;1.10;77.70
12819;DHT22;6474;53.474;9.894;2023-04-06T02:28:03;1.10;77.70
12819;DHT22;6474;53.474;9.894;2023-04-06T02:30:31;1.10;77.60
12819;DHT22;6474;53.474;9.894;2023-04-06T02:33:01;1.10;77.70
12819;DHT22;6474;53.474;9.894;2023-04-06T02:35:30;1.10;77.80
12819;DHT22;6474;53.474;9.894;2023-04-06T02:37:58;1.10;77.90
12819;DHT22;6474;53.474;9.894;2023-04-06T02:40:26;1.00;77.70
12819;DHT22;6474;53.474;9.894;2023-04-06T02:42:54;1.00;77.70
12819;DHT22;6474;53.474;9.894;2023-04-06T02:45:22;1.00;77.70
12819;DHT22;6474;53.474;9.894;2023-04-06T02:47:50;0.90;77.60
12819;DHT22;6474;53.474;9.894;2023-04-06T02:50:19;0.90;77.60
12819;DHT22;6474;53.474;9.894;2023-04-06T02:52:47;0.90;77.60
12819;DHT22;6474;53.474;9.894;2023-04-06T02:55:15;0.90;77.60
12819;DHT22;6474;53.474;9.894;2023-04-06T02:57:44;0.90;77.60
12819;DHT22;6474;53.474;9.894;2023-04-06T03:00:13;0.90;77.60
12819;DHT22;6474;53.474;9.894;2023-04-06T03:02:41;0.80;77.50
12819;DHT22;6474;53.474;9.894;2023-04-06T03:05:09;0.80;77.50
12819;DHT22;6474;53.474;9.894;2023-04-06T03:07:38;0.80;77.50
12819;DHT22;6474;53.474;9.894;2023-04-06T03:10:06;0.80;77.50
12819;DHT22;6474;53.474;9.894;2023-04-06T03:12:36;0.80;77.50
12819;DHT22;6474;53.474;9.894;2023-04-06T03:15:04;0.80;77.50
12819;DHT22;6474;53.474;9.894;2023-04-06T03:17:32;0.70;77.50
12819;DHT22;6474;53.474;9.894;2023-04-06T03:20:00;0.80;77.60
12819;DHT22;6474;53.474;9.894;2023-04-06T03:22:28;0.70;77.50
12819;DHT22;6474;53.474;9.894;2023-04-06T03:25:01;0.70;77.50
12819;DHT22;6474;53.474;9.894;2023-04-06T03:27:29;0.70;77.50
12819;DHT22;6474;53.474;9.894;2023-04-06T03:29:57;0.70;77.50
12819;DHT22;6474;53.474;9.894;2023-04-06T03:32:25;0.70;77.50
12819;DHT22;6474;53.474;9.894;2023-04-06T03:34:53;0.70;77.50
12819;DHT22;6474;53.474;9.894;2023-04-06T03:37:20;0.70;77.60
12819;DHT22;6474;53.474;9.894;2023-04-06T03:39:48;0.70;77.60
12819;DHT22;6474;53.474;9.894;2023-04-06T03:42:20;0.70;77.60
12819;DHT22;6474;53.474;9.894;2023-04-06T03:44:48;0.70;77.50
12819;DHT22;6474;53.474;9.894;2023-04-06T03:47:16;0.70;77.40
12819;DHT22;6474;53.474;9.894;2023-04-06T03:49:44;0.70;77.50
12819;DHT22;6474;53.474;9.894;2023-04-06T03:52:12;0.70;77.50
12819;DHT22;6474;53.474;9.894;2023-04-06T03:54:40;0.60;77.40
12819;DHT22;6474;53.474;9.894;2023-04-06T03:57:08;0.60;77.30
12819;DHT22;6474;53.474;9.894;2023-04-06T03:59:37;0.60;77.40
12819;DHT22;6474;53.474;9.894;2023-04-06T04:02:05;0.60;77.40
12819;DHT22;6474;53.474;9.894;2023-04-06T04:04:33;0.60;77.30
12819;DHT22;6474;53.474;9.894;2023-04-06T04:07:01;0.60;77.30
12819;DHT22;6474;53.474;9.894;2023-04-06T04:09:29;0.60;77.30
12819;DHT22;6474;53.474;9.894;2023-04-06T04:11:57;0.50;77.20
12819;DHT22;6474;53.474;9.894;2023-04-06T04:14:25;0.50;77.20
12819;DHT22;6474;53.474;9.894;2023-04-06T04:16:54;0.50;77.20
12819;DHT22;6474;53.474;9.894;2023-04-06T04:19:22;0.40;77.20
12819;DHT22;6474;53.474;9.894;2023-04-06T04:21:50;0.40;77.10
12819;DHT22;6474;53.474;9.894;2023-04-06T04:24:18;0.40;77.10
12819;DHT22;6474;53.474;9.894;2023-04-06T04:26:45;0.40;77.20
12819;DHT22;6474;53.474;9.894;2023-04-06T04:29:13;0.30;77.10
12819;DHT22;6474;53.474;9.894;2023-04-06T04:31:41;0.30;77.10
12819;DHT22;6474;53.474;9.894;2023-04-06T04:34:11;0.30;77.10
12819;DHT22;6474;53.474;9.894;2023-04-06T04:36:38;0.30;77.10
12819;DHT22;6474;53.474;9.894;2023-04-06T04:39:08;0.30;77.00
12819;DHT22;6474;53.474;9.894;2023-04-06T04:41:36;0.30;77.10
12819;DHT22;6474;53.474;9.894;2023-04-06T04:44:04;0.30;77.00
12819;DHT22;6474;53.474;9.894;2023-04-06T04:46:31;0.20;77.00
12819;DHT22;6474;53.474;9.894;2023-04-06T04:48:59;0.20;76.90
12819;DHT22;6474;53.474;9.894;2023-04-06T04:51:28;0.20;77.00
12819;DHT22;6474;53.474;9.894;2023-04-06T04:53:57;0.20;77.00
12819;DHT22;6474;53.474;9.894;2023-04-06T04:56:24;0.20;77.00
12819;DHT22;6474;53.474;9.894;2023-04-06T04:58:54;0.20;77.00
12819;DHT22;6474;53.474;9.894;2023-04-06T05:01:21;0.20;76.90
12819;DHT22;6474;53.474;9.894;2023-04-06T05:03:49;0.30;77.00
12819;DHT22;6474;53.474;9.894;2023-04-06T05:06:17;0.30;77.00
12819;DHT22;6474;53.474;9.894;2023-04-06T05:08:47;0.30;77.00
12819;DHT22;6474;53.474;9.894;2023-04-06T05:11:14;0.30;77.00
12819;DHT22;6474;53.474;9.894;2023-04-06T05:13:42;0.30;77.00
12819;DHT22;6474;53.474;9.894;2023-04-06T05:16:10;0.30;77.10
12819;DHT22;6474;53.474;9.894;2023-04-06T05:18:38;0.30;77.10
12819;DHT22;6474;53.474;9.894;2023-04-06T05:21:07;0.30;77.00
12819;DHT22;6474;53.474;9.894;2023-04-06T05:23:34;0.30;77.00
12819;DHT22;6474;53.474;9.894;2023-04-06T05:26:04;0.40;77.10
12819;DHT22;6474;53.474;9.894;2023-04-06T05:28:35;0.40;77.10
12819;DHT22;6474;53.474;9.894;2023-04-06T05:31:08;0.40;77.10
12819;DHT22;6474;53.474;9.894;2023-04-06T05:33:36;0.50;77.20
12819;DHT22;6474;53.474;9.894;2023-04-06T05:36:04;0.50;77.20
12819;DHT22;6474;53.474;9.894;2023-04-06T05:38:33;0.60;77.20
12819;DHT22;6474;53.474;9.894;2023-04-06T05:41:02;0.60;77.10
12819;DHT22;6474;53.474;9.894;2023-04-06T05:43:31;0.70;77.10
12819;DHT22;6474;53.474;9.894;2023-04-06T05:45:59;0.70;77.00
12819;DHT22;6474;53.474;9.894;2023-04-06T05:48:27;0.80;77.00
12819;DHT22;6474;53.474;9.894;2023-04-06T05:50:55;0.90;77.10
12819;DHT22;6474;53.474;9.894;2023-04-06T05:53:22;0.90;76.90
12819;DHT22;6474;53.474;9.894;2023-04-06T05:55:52;1.00;76.90
12819;DHT22;6474;53.474;9.894;2023-04-06T05:58:20;1.10;77.00
12819;DHT22;6474;53.474;9.894;2023-04-06T06:00:49;1.10;77.00
12819;DHT22;6474;53.474;9.894;2023-04-06T06:03:18;1.20;77.00
12819;DHT22;6474;53.474;9.894;2023-04-06T06:05:46;1.20;77.00
12819;DHT22;6474;53.474;9.894;2023-04-06T06:08:14;1.30;77.00
12819;DHT22;6474;53.474;9.894;2023-04-06T06:10:42;1.40;76.90
12819;DHT22;6474;53.474;9.894;2023-04-06T06:13:10;1.60;77.00
12819;DHT22;6474;53.474;9.894;2023-04-06T06:15:38;1.60;76.90
12819;DHT22;6474;53.474;9.894;2023-04-06T06:18:08;1.80;77.00
12819;DHT22;6474;53.474;9.894;2023-04-06T06:20:38;1.90;77.00
12819;DHT22;6474;53.474;9.894;2023-04-06T06:23:06;2.00;77.00
12819;DHT22;6474;53.474;9.894;2023-04-06T06:25:34;2.10;77.00
12819;DHT22;6474;53.474;9.894;2023-04-06T06:28:02;2.20;76.90
12819;DHT22;6474;53.474;9.894;2023-04-06T06:30:30;2.40;77.10
12819;DHT22;6474;53.474;9.894;2023-04-06T06:32:57;2.50;77.00
12819;DHT22;6474;53.474;9.894;2023-04-06T06:35:26;2.60;77.00
12819;DHT22;6474;53.474;9.894;2023-04-06T06:37:54;2.70;76.90
12819;DHT22;6474;53.474;9.894;2023-04-06T06:40:22;2.80;76.90
12819;DHT22;6474;53.474;9.894;2023-04-06T06:42:52;3.00;77.00
12819;DHT22;6474;53.474;9.894;2023-04-06T06:45:20;3.00;76.70
12819;DHT22;6474;53.474;9.894;2023-04-06T06:47:48;3.20;76.80
12819;DHT22;6474;53.474;9.894;2023-04-06T06:50:20;3.30;76.80
12819;DHT22;6474;53.474;9.894;2023-04-06T06:52:49;3.40;76.90
12819;DHT22;6474;53.474;9.894;2023-04-06T06:55:17;3.50;76.90
12819;DHT22;6474;53.474;9.894;2023-04-06T06:57:46;3.50;76.90
12819;DHT22;6474;53.474;9.894;2023-04-06T07:00:14;3.60;77.00
12819;DHT22;6474;53.474;9.894;2023-04-06T07:02:42;3.70;77.00
12819;DHT22;6474;53.474;9.894;2023-04-06T07:05:10;3.80;77.20
12819;DHT22;6474;53.474;9.894;2023-04-06T07:07:53;3.90;77.30
12819;DHT22;6474;53.474;9.894;2023-04-06T07:10:21;4.00;77.30
12819;DHT22;6474;53.474;9.894;2023-04-06T07:12:50;4.00;77.40
12819;DHT22;6474;53.474;9.894;2023-04-06T07:15:17;4.10;77.50
12819;DHT22;6474;53.474;9.894;2023-04-06T07:17:46;4.20;77.60
12819;DHT22;6474;53.474;9.894;2023-04-06T07:20:14;4.30;77.70
12819;DHT22;6474;53.474;9.894;2023-04-06T07:22:43;4.30;77.70
12819;DHT22;6474;53.474;9.894;2023-04-06T07:25:13;4.40;77.80
12819;DHT22;6474;53.474;9.894;2023-04-06T07:27:40;4.50;77.90
12819;DHT22;6474;53.474;9.894;2023-04-06T07:30:09;4.60;78.00
12819;DHT22;6474;53.474;9.894;2023-04-06T07:32:37;4.60;78.00
12819;DHT22;6474;53.474;9.894;2023-04-06T07:35:05;4.70;78.00
12819;DHT22;6474;53.474;9.894;2023-04-06T07:37:33;4.80;78.20
12819;DHT22;6474;53.474;9.894;2023-04-06T07:40:01;4.80;78.10
12819;DHT22;6474;53.474;9.894;2023-04-06T07:42:30;4.90;78.30
12819;DHT22;6474;53.474;9.894;2023-04-06T07:44:59;5.00;78.30
12819;DHT22;6474;53.474;9.894;2023-04-06T07:47:27;5.10;78.30
12819;DHT22;6474;53.474;9.894;2023-04-06T07:49:55;5.20;78.30
12819;DHT22;6474;53.474;9.894;2023-04-06T07:52:23;5.20;78.30
12819;DHT22;6474;53.474;9.894;2023-04-06T07:54:51;5.30;78.30
12819;DHT22;6474;53.474;9.894;2023-04-06T07:57:19;5.40;78.40
12819;DHT22;6474;53.474;9.894;2023-04-06T07:59:48;5.40;78.40
12819;DHT22;6474;53.474;9.894;2023-04-06T08:02:16;5.50;78.40
12819;DHT22;6474;53.474;9.894;2023-04-06T08:04:47;5.60;78.50
12819;DHT22;6474;53.474;9.894;2023-04-06T08:07:15;5.70;78.70
12819;DHT22;6474;53.474;9.894;2023-04-06T08:09:43;5.70;78.70
12819;DHT22;6474;53.474;9.894;2023-04-06T08:12:11;5.80;78.90
12819;DHT22;6474;53.474;9.894;2023-04-06T08:14:39;5.90;78.90
12819;DHT22;6474;53.474;9.894;2023-04-06T08:17:08;6.00;78.90
12819;DHT22;6474;53.474;9.894;2023-04-06T08:19:36;6.00;78.80
12819;DHT22;6474;53.474;9.894;2023-04-06T08:22:04;6.10;78.70
12819;DHT22;6474;53.474;9.894;2023-04-06T08:24:32;6.20;78.80
12819;DHT22;6474;53.474;9.894;2023-04-06T08:27:00;6.20;78.80
12819;DHT22;6474;53.474;9.894;2023-04-06T08:29:28;6.30;78.80
12819;DHT22;6474;53.474;9.894;2023-04-06T08:31:56;6.40;78.90
12819;DHT22;6474;53.474;9.894;2023-04-06T08:34:25;6.50;78.90
12819;DHT22;6474;53.474;9.894;2023-04-06T08:36:53;6.50;79.00
12819;DHT22;6474;53.474;9.894;2023-04-06T08:39:21;6.60;79.10
12819;DHT22;6474;53.474;9.894;2023-04-06T08:41:52;6.70;79.10
12819;DHT22;6474;53.474;9.894;2023-04-06T08:44:23;6.70;79.00
12819;DHT22;6474;53.474;9.894;2023-04-06T08:46:51;6.80;78.90
12819;DHT22;6474;53.474;9.894;2023-04-06T08:49:20;6.90;79.00
12819;DHT22;6474;53.474;9.894;2023-04-06T08:51:49;7.00;79.00
12819;DHT22;6474;53.474;9.894;2023-04-06T08:54:17;7.00;78.90
12819;DHT22;6474;53.474;9.894;2023-04-06T08:56:46;7.00;78.90
12819;DHT22;6474;53.474;9.894;2023-04-06T08:59:15;7.10;78.60
12819;DHT22;6474;53.474;9.894;2023-04-06T09:01:44;7.20;78.60
12819;DHT22;6474;53.474;9.894;2023-04-06T09:04:12;7.30;78.50
12819;DHT22;6474;53.474;9.894;2023-04-06T09:06:41;7.30;78.30
12819;DHT22;6474;53.474;9.894;2023-04-06T09:09:10;7.40;78.30
12819;DHT22;6474;53.474;9.894;2023-04-06T09:11:46;7.40;78.20
12819;DHT22;6474;53.474;9.894;2023-04-06T09:14:15;7.50;78.30
12819;DHT22;6474;53.474;9.894;2023-04-06T09:16:44;7.60;78.20
12819;DHT22;6474;53.474;9.894;2023-04-06T09:19:12;7.60;78.20
12819;DHT22;6474;53.474;9.894;2023-04-06T09:21:40;7.70;78.30
12819;DHT22;6474;53.474;9.894;2023-04-06T09:24:10;7.80;78.30
12819;DHT22;6474;53.474;9.894;2023-04-06T09:26:45;7.80;78.20
12819;DHT22;6474;53.474;9.894;2023-04-06T09:29:23;7.90;78.40
12819;DHT22;6474;53.474;9.894;2023-04-06T09:31:52;8.10;78.60
12819;DHT22;6474;53.474;9.894;2023-04-06T09:34:29;8.10;78.50
12819;DHT22;6474;53.474;9.894;2023-04-06T09:36:56;8.20;78.20
12819;DHT22;6474;53.474;9.894;2023-04-06T09:39:26;8.30;78.30
12819;DHT22;6474;53.474;9.894;2023-04-06T09:41:54;8.40;78.10
12819;DHT22;6474;53.474;9.894;2023-04-06T09:44:22;8.50;78.00
12819;DHT22;6474;53.474;9.894;2023-04-06T09:46:53;8.50;77.70
12819;DHT22;6474;53.474;9.894;2023-04-06T09:49:27;8.60;77.90
12819;DHT22;6474;53.474;9.894;2023-04-06T09:52:00;8.60;77.70
12819;DHT22;6474;53.474;9.894;2023-04-06T09:54:31;8.70;78.00
12819;DHT22;6474;53.474;9.894;2023-04-06T09:57:05;8.80;78.00
12819;DHT22;6474;53.474;9.894;2023-04-06T09:59:43;8.80;77.90
12819;DHT22;6474;53.474;9.894;2023-04-06T10:02:20;8.90;77.90
12819;DHT22;6474;53.474;9.894;2023-04-06T10:04:58;9.00;78.30
12819;DHT22;6474;53.474;9.894;2023-04-06T10:07:27;9.10;77.50
12819;DHT22;6474;53.474;9.894;2023-04-06T10:09:58;9.20;77.70
12819;DHT22;6474;53.474;9.894;2023-04-06T10:12:27;9.20;77.70
12819;DHT22;6474;53.474;9.894;2023-04-06T10:14:55;9.30;77.70
12819;DHT22;6474;53.474;9.894;2023-04-06T10:17:23;9.30;77.60
12819;DHT22;6474;53.474;9.894;2023-04-06T10:19:55;9.40;77.70
12819;DHT22;6474;53.474;9.894;2023-04-06T10:22:30;9.50;77.70
12819;DHT22;6474;53.474;9.894;2023-04-06T10:25:01;9.50;77.50
12819;DHT22;6474;53.474;9.894;2023-04-06T10:27:30;9.60;77.30
12819;DHT22;6474;53.474;9.894;2023-04-06T10:30:02;9.60;77.30
12819;DHT22;6474;53.474;9.894;2023-04-06T10:32:34;9.60;77.00
12819;DHT22;6474;53.474;9.894;2023-04-06T10:35:07;9.70;77.00
12819;DHT22;6474;53.474;9.894;2023-04-06T10:37:52;9.80;77.20
12819;DHT22;6474;53.474;9.894;2023-04-06T10:40:24;9.80;77.00
12819;DHT22;6474;53.474;9.894;2023-04-06T10:42:53;9.80;77.00
12819;DHT22;6474;53.474;9.894;2023-04-06T10:45:24;9.90;77.20
12819;DHT22;6474;53.474;9.894;2023-04-06T10:47:52;9.90;77.00
12819;DHT22;6474;53.474;9.894;2023-04-06T10:50:22;10.00;76.00
12819;DHT22;6474;53.474;9.894;2023-04-06T10:53:00;10.10;76.00
12819;DHT22;6474;53.474;9.894;2023-04-06T10:55:29;10.10;75.50
12819;DHT22;6474;53.474;9.894;2023-04-06T10:57:58;10.20;75.70
12819;DHT22;6474;53.474;9.894;2023-04-06T11:00:26;10.20;75.40
12819;DHT22;6474;53.474;9.894;2023-04-06T11:03:12;10.20;75.40
12819;DHT22;6474;53.474;9.894;2023-04-06T11:05:43;10.30;75.60
12819;DHT22;6474;53.474;9.894;2023-04-06T11:08:22;10.30;76.10
12819;DHT22;6474;53.474;9.894;2023-04-06T11:11:03;10.40;75.40
12819;DHT22;6474;53.474;9.894;2023-04-06T11:13:37;10.40;75.50
12819;DHT22;6474;53.474;9.894;2023-04-06T11:16:06;10.50;75.30
12819;DHT22;6474;53.474;9.894;2023-04-06T11:18:34;10.50;75.10
12819;DHT22;6474;53.474;9.894;2023-04-06T11:21:02;10.60;75.30
12819;DHT22;6474;53.474;9.894;2023-04-06T11:23:30;10.60;75.20
12819;DHT22;6474;53.474;9.894;2023-04-06T11:25:59;10.70;75.40
12819;DHT22;6474;53.474;9.894;2023-04-06T11:28:27;10.70;75.50
12819;DHT22;6474;53.474;9.894;2023-04-06T11:30:55;10.80;75.60
12819;DHT22;6474;53.474;9.894;2023-04-06T11:33:24;10.80;75.60
12819;DHT22;6474;53.474;9.894;2023-04-06T11:35:56;10.90;75.60
12819;DHT22;6474;53.474;9.894;2023-04-06T11:38:24;10.90;75.50
12819;DHT22;6474;53.474;9.894;2023-04-06T11:40:53;11.00;75.60
12819;DHT22;6474;53.474;9.894;2023-04-06T11:43:28;11.00;75.50
12819;DHT22;6474;53.474;9.894;2023-04-06T11:46:01;11.10;75.40
12819;DHT22;6474;53.474;9.894;2023-04-06T11:48:30;11.10;75.20
12819;DHT22;6474;53.474;9.894;2023-04-06T11:50:58;11.20;75.30
12819;DHT22;6474;53.474;9.894;2023-04-06T11:53:28;11.20;75.20
12819;DHT22;6474;53.474;9.894;2023-04-06T11:55:56;11.20;75.10
12819;DHT22;6474;53.474;9.894;2023-04-06T11:58:24;11.20;75.00
12819;DHT22;6474;53.474;9.894;2023-04-06T12:01:03;11.30;75.10
12819;DHT22;6474;53.474;9.894;2023-04-06T12:03:31;11.30;74.90
12819;DHT22;6474;53.474;9.894;2023-04-06T12:05:59;11.40;75.10
12819;DHT22;6474;53.474;9.894;2023-04-06T12:08:27;11.40;75.20
12819;DHT22;6474;53.474;9.894;2023-04-06T12:10:54;11.50;75.30
12819;DHT22;6474;53.474;9.894;2023-04-06T12:13:22;11.50;75.30
12819;DHT22;6474;53.474;9.894;2023-04-06T12:15:51;11.50;75.00
12819;DHT22;6474;53.474;9.894;2023-04-06T12:18:20;11.60;75.00
12819;DHT22;6474;53.474;9.894;2023-04-06T12:20:48;11.60;75.10
12819;DHT22;6474;53.474;9.894;2023-04-06T12:23:16;11.60;75.10
12819;DHT22;6474;53.474;9.894;2023-04-06T12:25:43;11.60;74.90
12819;DHT22;6474;53.474;9.894;2023-04-06T12:28:11;11.70;74.90
12819;DHT22;6474;53.474;9.894;2023-04-06T12:30:39;11.70;74.90
12819;DHT22;6474;53.474;9.894;2023-04-06T12:33:08;11.70;74.90
12819;DHT22;6474;53.474;9.894;2023-04-06T12:35:37;11.70;75.00
12819;DHT22;6474;53.474;9.894;2023-04-06T12:38:05;11.70;75.10
12819;DHT22;6474;53.474;9.894;2023-04-06T12:40:36;11.80;75.00
12819;DHT22;6474;53.474;9.894;2023-04-06T12:43:04;11.80;75.00
12819;DHT22;6474;53.474;9.894;2023-04-06T12:45:32;11.90;75.10
12819;DHT22;6474;53.474;9.894;2023-04-06T12:48:01;12.00;75.20
12819;DHT22;6474;53.474;9.894;2023-04-06T12:50:28;12.00;75.10
12819;DHT22;6474;53.474;9.894;2023-04-06T12:52:57;12.00;75.00
12819;DHT22;6474;53.474;9.894;2023-04-06T12:55:26;12.00;74.90
12819;DHT22;6474;53.474;9.894;2023-04-06T12:57:56;12.00;75.10
12819;DHT22;6474;53.474;9.894;2023-04-06T13:00:25;12.00;74.60
12819;DHT22;6474;53.474;9.894;2023-04-06T13:02:53;12.00;74.50
12819;DHT22;6474;53.474;9.894;2023-04-06T13:05:21;12.10;74.80
12819;DHT22;6474;53.474;9.894;2023-04-06T13:07:48;12.10;74.80
12819;DHT22;6474;53.474;9.894;2023-04-06T13:10:18;12.10;74.90
12819;DHT22;6474;53.474;9.894;2023-04-06T13:12:46;12.20;74.30
12819;DHT22;6474;53.474;9.894;2023-04-06T13:15:14;12.20;74.30
12819;DHT22;6474;53.474;9.894;2023-04-06T13:17:42;12.20;74.30
12819;DHT22;6474;53.474;9.894;2023-04-06T13:20:12;12.20;74.30
12819;DHT22;6474;53.474;9.894;2023-04-06T13:22:40;12.30;74.40
12819;DHT22;6474;53.474;9.894;2023-04-06T13:25:08;12.30;74.50
12819;DHT22;6474;53.474;9.894;2023-04-06T13:27:37;12.30;74.40
12819;DHT22;6474;53.474;9.894;2023-04-06T13:30:06;12.30;74.40
12819;DHT22;6474;53.474;9.894;2023-04-06T13:32:34;12.30;74.40
12819;DHT22;6474;53.474;9.894;2023-04-06T13:35:03;12.30;74.40
12819;DHT22;6474;53.474;9.894;2023-04-06T13:37:31;12.30;74.40
12819;DHT22;6474;53.474;9.894;2023-04-06T13:39:59;12.40;74.50
12819;DHT22;6474;53.474;9.894;2023-04-06T13:42:27;12.40;74.50
12819;DHT22;6474;53.474;9.894;2023-04-06T13:44:57;12.50;74.60
12819;DHT22;6474;53.474;9.894;2023-04-06T13:47:25;12.50;74.60
12819;DHT22;6474;53.474;9.894;2023-04-06T13:49:53;12.50;74.60
12819;DHT22;6474;53.474;9.894;2023-04-06T13:52:22;12.50;74.60
12819;DHT22;6474;53.474;9.894;2023-04-06T13:54:50;12.50;74.60
12819;DHT22;6474;53.474;9.894;2023-04-06T13:57:18;12.50;74.60
12819;DHT22;6474;53.474;9.894;2023-04-06T13:59:46;12.50;74.60
12819;DHT22;6474;53.474;9.894;2023-04-06T14:02:15;12.50;74.60
12819;DHT22;6474;53.474;9.894;2023-04-06T14:04:44;12.50;74.70
12819;DHT22;6474;53.474;9.894;2023-04-06T14:07:12;12.60;74.70
12819;DHT22;6474;53.474;9.894;2023-04-06T14:09:40;12.60;74.70
12819;DHT22;6474;53.474;9.894;2023-04-06T14:12:08;12.60;74.70
12819;DHT22;6474;53.474;9.894;2023-04-06T14:14:35;12.60;74.60
12819;DHT22;6474;53.474;9.894;2023-04-06T14:17:03;12.70;74.30
12819;DHT22;6474;53.474;9.894;2023-04-06T14:19:32;12.70;74.20
12819;DHT22;6474;53.474;9.894;2023-04-06T14:22:00;12.70;74.20
12819;DHT22;6474;53.474;9.894;2023-04-06T14:24:28;12.70;74.00
12819;DHT22;6474;53.474;9.894;2023-04-06T14:26:56;12.70;74.20
12819;DHT22;6474;53.474;9.894;2023-04-06T14:29:24;12.70;74.00
12819;DHT22;6474;53.474;9.894;2023-04-06T14:31:52;12.70;73.90
12819;DHT22;6474;53.474;9.894;2023-04-06T14:34:26;12.70;73.80
12819;DHT22;6474;53.474;9.894;2023-04-06T14:36:55;12.60;73.90
12819;DHT22;6474;53.474;9.894;2023-04-06T14:39:23;12.60;73.90
12819;DHT22;6474;53.474;9.894;2023-04-06T14:41:51;12.60;73.90
12819;DHT22;6474;53.474;9.894;2023-04-06T14:44:19;12.60;74.10
12819;DHT22;6474;53.474;9.894;2023-04-06T14:46:47;12.60;74.20
12819;DHT22;6474;53.474;9.894;2023-04-06T14:49:15;12.60;74.20
12819;DHT22;6474;53.474;9.894;2023-04-06T14:51:42;12.60;74.00
12819;DHT22;6474;53.474;9.894;2023-04-06T14:54:11;12.50;73.70
12819;DHT22;6474;53.474;9.894;2023-04-06T14:56:39;12.50;73.80
12819;DHT22;6474;53.474;9.894;2023-04-06T14:59:08;12.50;73.90
12819;DHT22;6474;53.474;9.894;2023-04-06T15:01:37;12.50;73.80
12819;DHT22;6474;53.474;9.894;2023-04-06T15:04:05;12.40;73.90
12819;DHT22;6474;53.474;9.894;2023-04-06T15:06:33;12.40;73.90
12819;DHT22;6474;53.474;9.894;2023-04-06T15:09:01;12.40;73.30
12819;DHT22;6474;53.474;9.894;2023-04-06T15:11:30;12.40;73.40
12819;DHT22;6474;53.474;9.894;2023-04-06T15:14:00;12.40;73.50
12819;DHT22;6474;53.474;9.894;2023-04-06T15:16:28;12.30;73.50
12819;DHT22;6474;53.474;9.894;2023-04-06T15:19:00;12.20;73.50
12819;DHT22;6474;53.474;9.894;2023-04-06T15:21:27;12.20;73.60
12819;DHT22;6474;53.474;9.894;2023-04-06T15:23:56;12.10;73.50
12819;DHT22;6474;53.474;9.894;2023-04-06T15:26:25;12.10;73.60
12819;DHT22;6474;53.474;9.894;2023-04-06T15:28:54;12.10;73.60
12819;DHT22;6474;53.474;9.894;2023-04-06T15:31:22;12.00;73.30
12819;DHT22;6474;53.474;9.894;2023-04-06T15:34:03;12.00;73.40
12819;DHT22;6474;53.474;9.894;2023-04-06T15:36:31;12.00;73.40
12819;DHT22;6474;53.474;9.894;2023-04-06T15:38:59;12.00;73.40
12819;DHT22;6474;53.474;9.894;2023-04-06T15:41:27;11.90;73.40
12819;DHT22;6474;53.474;9.894;2023-04-06T15:43:56;11.90;73.20
12819;DHT22;6474;53.474;9.894;2023-04-06T15:46:24;11.90;73.20
12819;DHT22;6474;53.474;9.894;2023-04-06T15:48:54;11.80;73.10
12819;DHT22;6474;53.474;9.894;2023-04-06T15:51:22;11.80;74.10
12819;DHT22;6474;53.474;9.894;2023-04-06T15:53:50;11.80;73.10
12819;DHT22;6474;53.474;9.894;2023-04-06T15:56:18;11.80;73.20
12819;DHT22;6474;53.474;9.894;2023-04-06T15:58:46;11.70;73.10
12819;DHT22;6474;53.474;9.894;2023-04-06T16:01:17;11.70;73.10
12819;DHT22;6474;53.474;9.894;2023-04-06T16:03:46;11.70;73.30
12819;DHT22;6474;53.474;9.894;2023-04-06T16:06:14;11.60;73.00
12819;DHT22;6474;53.474;9.894;2023-04-06T16:08:42;11.60;73.10